createdAt,value
2019-06-26T00:02:30.801Z,66.06
2019-06-26T00:05:06.122Z,66.25
2019-06-26T00:07:39.522Z,66.59
2019-06-26T00:10:13.402Z,66.92
2019-06-26T00:12:46.807Z,67.44
2019-06-26T00:15:20.281Z,67.45
2019-06-26T00:17:53.676Z,67.66
2019-06-26T00:20:27.060Z,67.89
2019-06-26T00:23:00.706Z,67.98
2019-06-26T00:25:34.109Z,68.16
2019-06-26T00:28:07.501Z,68.09
2019-06-26T00:30:41.467Z,68.02
2019-06-26T00:33:14.869Z,68.00
2019-06-26T00:35:48.270Z,68.05
2019-06-26T00:38:21.667Z,68.06
2019-06-26T00:40:55.067Z,67.78
2019-06-26T00:43:41.576Z,67.35
2019-06-26T00:46:03.912Z,67.21
2019-06-26T00:48:37.556Z,67.32
2019-06-26T00:51:10.938Z,67.60
2019-06-26T00:53:44.341Z,67.68
2019-06-26T00:56:17.739Z,67.76
2019-06-26T00:58:51.135Z,67.85
2019-06-26T01:01:24.532Z,67.96
2019-06-26T01:03:59.581Z,68.45
2019-06-26T01:06:44.804Z,68.71
2019-06-26T01:09:18.449Z,68.95
2019-06-26T01:11:51.840Z,69.33
2019-06-26T01:14:25.249Z,69.41
2019-06-26T01:16:58.660Z,69.23
2019-06-26T01:19:32.052Z,69.28
2019-06-26T01:22:05.441Z,69.26
2019-06-26T01:24:38.856Z,69.31
2019-06-26T01:27:12.258Z,69.47
2019-06-26T01:29:45.665Z,68.54
2019-06-26T01:32:19.074Z,67.74
2019-06-26T01:34:52.478Z,67.31
2019-06-26T01:37:25.854Z,67.10
2019-06-26T01:39:59.258Z,67.33
2019-06-26T01:42:32.666Z,67.43
2019-06-26T01:45:07.299Z,67.86
2019-06-26T01:47:40.687Z,68.32
2019-06-26T01:50:14.321Z,68.47
2019-06-26T01:52:47.715Z,68.63
2019-06-26T01:55:21.115Z,68.63
2019-06-26T01:57:54.505Z,68.47
2019-06-26T02:00:28.383Z,68.50
2019-06-26T02:03:01.909Z,68.29
2019-06-26T02:05:35.436Z,67.88
2019-06-26T02:08:08.828Z,67.77
2019-06-26T02:10:42.420Z,68.47
2019-06-26T02:13:15.777Z,68.67
2019-06-26T02:15:49.218Z,68.70
2019-06-26T02:18:33.000Z,68.56
2019-06-26T02:21:06.465Z,68.71
2019-06-26T02:23:39.861Z,68.87
2019-06-26T02:26:13.325Z,69.00
2019-06-26T02:28:46.662Z,69.01
2019-06-26T02:31:20.069Z,69.13
2019-06-26T02:33:53.456Z,69.22
2019-06-26T02:36:26.862Z,69.51
2019-06-26T02:39:00.253Z,69.56
2019-06-26T02:41:33.664Z,69.48
2019-06-26T02:44:07.063Z,69.67
2019-06-26T02:46:40.479Z,69.64
2019-06-26T02:49:13.885Z,69.56
2019-06-26T02:51:47.288Z,69.56
2019-06-26T02:54:20.932Z,69.77
2019-06-26T02:56:54.335Z,69.73
2019-06-26T02:59:27.720Z,69.86
2019-06-26T03:02:01.121Z,70.03
2019-06-26T03:04:34.507Z,69.52
2019-06-26T03:07:07.917Z,68.56
2019-06-26T03:09:41.308Z,68.18
2019-06-26T03:12:14.700Z,68.20
2019-06-26T03:14:48.097Z,68.43
2019-06-26T03:17:21.601Z,68.44
2019-06-26T03:19:55.252Z,68.64
2019-06-26T03:22:28.646Z,68.68
2019-06-26T03:25:02.348Z,68.96
2019-06-26T03:27:35.739Z,69.51
2019-06-26T03:30:09.506Z,70.21
2019-06-26T03:32:42.905Z,70.69
2019-06-26T03:35:16.305Z,70.76
2019-06-26T03:37:49.699Z,70.82
2019-06-26T03:40:23.098Z,69.38
2019-06-26T03:42:56.487Z,69.17
2019-06-26T03:45:30.148Z,69.41
2019-06-26T03:48:03.540Z,69.89
2019-06-26T03:50:37.187Z,69.99
2019-06-26T03:53:10.817Z,70.09
2019-06-26T03:55:44.229Z,70.21
2019-06-26T03:58:17.685Z,70.46
2019-06-26T04:00:51.083Z,71.05
2019-06-26T04:03:24.578Z,71.18
2019-06-26T04:05:57.987Z,71.40
2019-06-26T04:08:31.375Z,70.80
2019-06-26T04:11:04.771Z,70.63
2019-06-26T04:13:38.163Z,70.79
2019-06-26T04:16:11.566Z,70.98
2019-06-26T04:18:44.956Z,70.93
2019-06-26T04:21:18.358Z,70.99
2019-06-26T04:23:51.749Z,71.20
2019-06-26T04:26:25.161Z,71.37
2019-06-26T04:28:58.552Z,71.76
2019-06-26T04:31:31.958Z,72.04
2019-06-26T04:34:05.348Z,72.34
2019-06-26T04:36:38.778Z,72.50
2019-06-26T04:39:12.178Z,72.39
2019-06-26T04:41:45.663Z,72.70
2019-06-26T04:44:19.051Z,72.86
2019-06-26T04:46:52.459Z,72.84
2019-06-26T04:49:25.843Z,72.73
2019-06-26T04:51:59.496Z,72.45
2019-06-26T04:54:32.981Z,72.18
2019-06-26T04:57:06.686Z,72.23
2019-06-26T04:59:40.091Z,72.13
2019-06-26T05:02:14.422Z,72.20
2019-06-26T05:04:47.823Z,72.05
2019-06-26T05:07:21.229Z,71.95
2019-06-26T05:09:54.625Z,71.76
2019-06-26T05:12:28.029Z,71.75
2019-06-26T05:15:02.577Z,71.78
2019-06-26T05:17:35.984Z,71.54
2019-06-26T05:20:10.167Z,71.65
2019-06-26T05:22:43.577Z,71.78
2019-06-26T05:25:17.034Z,71.78
2019-06-26T05:27:50.449Z,72.06
2019-06-26T05:30:24.412Z,72.03
2019-06-26T05:32:58.065Z,72.52
2019-06-26T05:35:34.872Z,72.74
2019-06-26T05:38:06.619Z,72.59
2019-06-26T05:40:40.014Z,72.46
2019-06-26T05:43:13.660Z,72.24
2019-06-26T05:45:47.066Z,72.26
2019-06-26T05:48:21.394Z,72.06
2019-06-26T05:50:54.803Z,72.11
2019-06-26T05:53:28.234Z,72.28
2019-06-26T05:56:01.629Z,72.51
2019-06-26T05:58:35.031Z,72.24
2019-06-26T06:01:08.434Z,72.24
2019-06-26T06:03:41.850Z,72.12
2019-06-26T06:06:15.567Z,71.79
2019-06-26T06:08:49.917Z,71.53
2019-06-26T06:11:23.338Z,71.31
2019-06-26T06:13:56.727Z,71.10
2019-06-26T06:16:45.930Z,70.84
2019-06-26T06:19:05.260Z,70.41
2019-06-26T06:21:39.568Z,70.31
2019-06-26T06:24:12.985Z,70.18
2019-06-26T06:26:46.368Z,70.01
2019-06-26T06:29:19.782Z,69.76
2019-06-26T06:31:53.180Z,69.33
2019-06-26T06:34:26.657Z,69.05
2019-06-26T06:37:00.325Z,68.87
2019-06-26T06:39:33.995Z,68.52
2019-06-26T06:42:08.295Z,68.11
2019-06-26T06:44:41.698Z,67.90
2019-06-26T06:47:15.336Z,67.68
2019-06-26T06:49:48.757Z,67.33
2019-06-26T06:52:22.154Z,66.92
2019-06-26T06:54:55.575Z,66.91
2019-06-26T06:57:29.219Z,66.45
2019-06-26T07:00:02.710Z,66.47
2019-06-26T07:02:36.133Z,66.41
2019-06-26T07:05:10.489Z,66.14
2019-06-26T07:07:45.815Z,66.53
2019-06-26T07:10:20.257Z,66.23
2019-06-26T07:12:53.751Z,65.96
2019-06-26T07:15:32.972Z,66.17
2019-06-26T07:18:06.620Z,65.36
2019-06-26T07:20:44.664Z,65.05
2019-06-26T07:23:17.301Z,64.75
2019-06-26T07:25:50.720Z,64.55
2019-06-26T07:28:24.132Z,64.52
2019-06-26T07:30:57.564Z,64.13
2019-06-26T07:33:33.181Z,64.08
2019-06-26T07:36:08.602Z,64.07
2019-06-26T07:38:42.045Z,63.63
2019-06-26T07:41:17.476Z,63.54
2019-06-26T07:43:52.040Z,63.41
2019-06-26T07:46:25.535Z,63.26
2019-06-26T07:48:59.218Z,63.18
2019-06-26T07:51:33.097Z,62.78
2019-06-26T07:54:07.499Z,62.67
2019-06-26T07:56:43.152Z,62.37
2019-06-26T07:59:17.271Z,61.97
2019-06-26T08:01:51.810Z,61.70
2019-06-26T08:04:25.240Z,60.88
2019-06-26T08:06:58.901Z,60.88
2019-06-26T08:09:32.325Z,60.88
2019-06-26T08:12:06.671Z,60.34
2019-06-26T08:14:40.117Z,60.01
2019-06-26T08:17:13.589Z,59.49
2019-06-26T08:19:47.052Z,59.28
2019-06-26T08:22:20.799Z,58.87
2019-06-26T08:24:54.304Z,57.98
2019-06-26T08:27:28.646Z,57.68
2019-06-26T08:30:02.194Z,56.45
2019-06-26T08:32:44.440Z,56.71
2019-06-26T08:35:18.097Z,56.27
2019-06-26T08:38:05.710Z,55.00
2019-06-26T08:40:31.732Z,54.14
2019-06-26T08:43:06.286Z,53.01
2019-06-26T08:45:41.632Z,53.19
2019-06-26T08:48:38.344Z,53.01
2019-06-26T08:50:58.260Z,53.74
2019-06-26T08:53:33.072Z,52.99
2019-06-26T08:56:08.537Z,51.54
2019-06-26T08:58:42.013Z,50.21
2019-06-26T09:01:17.707Z,51.18
2019-06-26T09:03:57.073Z,51.45
2019-06-26T09:06:31.551Z,49.76
2019-06-26T09:09:07.950Z,50.70
2019-06-26T09:11:42.333Z,50.71
2019-06-26T09:14:18.534Z,49.66
2019-06-26T09:16:52.120Z,48.89
2019-06-26T09:19:25.943Z,49.22
2019-06-26T09:22:01.305Z,50.14
2019-06-26T09:24:38.606Z,49.81
2019-06-26T09:27:14.801Z,49.43
2019-06-26T09:29:55.311Z,49.66
2019-06-26T09:32:28.794Z,49.00
2019-06-26T09:35:11.689Z,49.45
2019-06-26T09:37:51.144Z,50.25
2019-06-26T09:40:24.665Z,49.36
2019-06-26T09:42:59.031Z,49.13
2019-06-26T09:45:41.410Z,49.39
2019-06-26T09:48:14.891Z,48.96
2019-06-26T09:51:01.280Z,48.45
2019-06-26T09:53:46.566Z,48.59
2019-06-26T09:56:16.429Z,48.90
2019-06-26T09:58:49.924Z,49.71
2019-06-26T10:01:23.780Z,50.54
2019-06-26T10:03:57.591Z,48.64
2019-06-26T10:06:31.182Z,49.33
2019-06-26T10:09:07.335Z,48.47
2019-06-26T10:11:40.791Z,48.24
2019-06-26T10:14:14.349Z,47.00
2019-06-26T10:16:51.822Z,46.05
2019-06-26T10:19:35.317Z,45.86
2019-06-26T10:22:08.812Z,45.47
2019-06-26T10:24:43.387Z,44.92
2019-06-26T10:27:16.890Z,44.80
2019-06-26T10:29:52.646Z,44.03
2019-06-26T10:32:26.150Z,43.96
2019-06-26T10:34:59.610Z,44.13
2019-06-26T10:37:33.162Z,44.94
2019-06-26T10:40:08.885Z,43.56
2019-06-26T10:42:49.270Z,43.91
2019-06-26T10:45:25.969Z,42.28
2019-06-26T10:48:06.344Z,42.21
2019-06-26T10:50:49.799Z,43.94
2019-06-26T10:53:18.141Z,42.97
2019-06-26T10:55:51.659Z,42.67
2019-06-26T10:58:27.409Z,42.08
2019-06-26T11:01:01.456Z,41.50
2019-06-26T11:03:36.359Z,41.42
2019-06-26T11:06:10.843Z,42.67
2019-06-26T11:08:44.450Z,43.54
2019-06-26T11:11:18.103Z,42.14
2019-06-26T11:13:51.657Z,41.02
2019-06-26T11:16:25.138Z,41.14
2019-06-26T11:19:00.807Z,40.83
2019-06-26T11:21:35.453Z,40.90
2019-06-26T11:24:12.969Z,40.69
2019-06-26T11:26:46.830Z,41.65
2019-06-26T11:29:21.614Z,41.29
2019-06-26T11:31:58.068Z,39.95
2019-06-26T11:34:33.831Z,39.70
2019-06-26T11:37:07.859Z,40.89
2019-06-26T11:39:41.440Z,39.54
2019-06-26T11:42:16.054Z,40.48
2019-06-26T11:45:00.085Z,40.09
2019-06-26T11:47:33.781Z,39.24
2019-06-26T11:50:12.415Z,39.69
2019-06-26T11:52:47.877Z,39.96
2019-06-26T11:55:27.829Z,40.08
2019-06-26T11:58:02.540Z,39.25
2019-06-26T12:00:41.594Z,38.72
2019-06-26T12:03:22.637Z,38.35
2019-06-26T12:06:15.255Z,38.71
2019-06-26T12:08:40.854Z,37.92
2019-06-26T12:11:17.453Z,37.93
2019-06-26T12:13:51.148Z,38.65
2019-06-26T12:16:25.709Z,38.28
2019-06-26T12:18:59.289Z,38.74
2019-06-26T12:21:41.666Z,38.72
2019-06-26T12:24:15.129Z,38.03
2019-06-26T12:26:52.692Z,37.95
2019-06-26T12:29:26.153Z,37.21
2019-06-26T12:31:59.682Z,37.40
2019-06-26T12:34:33.421Z,37.95
2019-06-26T12:37:07.014Z,38.04
2019-06-26T12:39:40.500Z,36.91
2019-06-26T12:42:15.420Z,38.09
2019-06-26T12:44:56.187Z,36.84
2019-06-26T12:47:31.505Z,36.89
2019-06-26T12:50:06.952Z,36.59
2019-06-26T12:52:42.406Z,36.28
2019-06-26T12:55:16.125Z,37.25
2019-06-26T12:57:49.579Z,36.24
2019-06-26T13:00:23.466Z,33.62
2019-06-26T13:02:56.926Z,34.29
2019-06-26T13:05:30.380Z,33.47
2019-06-26T13:08:04.121Z,33.05
2019-06-26T13:10:48.907Z,34.16
2019-06-26T13:13:15.091Z,34.90
2019-06-26T13:15:51.055Z,34.35
2019-06-26T13:18:24.702Z,34.27
2019-06-26T13:21:05.725Z,33.15
2019-06-26T13:23:41.451Z,32.86
2019-06-26T13:26:26.553Z,31.76
2019-06-26T13:28:59.966Z,31.70
2019-06-26T13:31:33.459Z,31.86
2019-06-26T13:34:08.868Z,30.45
2019-06-26T13:36:43.711Z,30.59
2019-06-26T13:39:17.236Z,30.03
2019-06-26T13:41:50.747Z,29.80
2019-06-26T13:44:24.412Z,26.54
2019-06-26T13:47:01.454Z,27.14
2019-06-26T13:49:35.050Z,26.66
2019-06-26T13:52:08.809Z,29.62
2019-06-26T13:54:42.547Z,29.20
2019-06-26T13:57:16.290Z,28.10
2019-06-26T13:59:49.680Z,29.37
2019-06-26T14:02:23.087Z,28.21
2019-06-26T14:04:56.730Z,28.20
2019-06-26T14:07:30.134Z,28.06
2019-06-26T14:10:05.306Z,28.67
2019-06-26T14:12:39.187Z,28.88
2019-06-26T14:15:14.216Z,29.60
2019-06-26T14:17:47.689Z,29.08
2019-06-26T14:20:22.120Z,29.88
2019-06-26T14:22:55.524Z,28.02
2019-06-26T14:25:28.908Z,28.52
2019-06-26T14:28:02.308Z,28.22
2019-06-26T14:30:35.704Z,28.26
2019-06-26T14:33:09.108Z,28.61
2019-06-26T14:35:42.530Z,28.75
2019-06-26T14:38:15.934Z,28.71
2019-06-26T14:40:49.325Z,28.41
2019-06-26T14:43:22.964Z,28.45
2019-06-26T14:45:56.365Z,27.84
2019-06-26T14:48:30.022Z,28.70
2019-06-26T14:51:03.653Z,28.68
2019-06-26T14:53:37.049Z,28.08
2019-06-26T14:56:10.440Z,27.77
2019-06-26T14:58:43.840Z,28.99
2019-06-26T15:01:17.240Z,27.62
2019-06-26T15:03:50.638Z,27.41
2019-06-26T15:06:24.289Z,28.88
2019-06-26T15:08:57.937Z,28.10
2019-06-26T15:11:31.332Z,27.32
2019-06-26T15:14:04.874Z,26.57
2019-06-26T15:16:38.478Z,26.62
2019-06-26T15:19:11.848Z,26.17
2019-06-26T15:21:57.767Z,26.97
2019-06-26T15:24:20.614Z,27.77
2019-06-26T15:26:54.006Z,25.84
2019-06-26T15:29:27.423Z,25.85
2019-06-26T15:32:00.792Z,26.14
2019-06-26T15:34:34.458Z,26.66
2019-06-26T15:37:07.853Z,26.66
2019-06-26T15:39:41.259Z,26.87
2019-06-26T15:42:14.660Z,27.68
2019-06-26T15:44:49.301Z,27.41
2019-06-26T15:47:22.687Z,27.38
2019-06-26T15:49:56.366Z,28.11
2019-06-26T15:52:31.583Z,27.48
2019-06-26T15:55:06.902Z,27.48
2019-06-26T15:57:40.290Z,25.22
2019-06-26T16:00:15.030Z,25.29
2019-06-26T16:02:48.426Z,25.20
2019-06-26T16:05:21.826Z,26.66
2019-06-26T16:07:55.216Z,25.49
2019-06-26T16:10:28.629Z,25.58
2019-06-26T16:13:02.297Z,25.56
2019-06-26T16:15:36.080Z,26.88
2019-06-26T16:18:13.796Z,26.60
2019-06-26T16:20:47.191Z,27.50
2019-06-26T16:23:20.587Z,28.22
2019-06-26T16:25:53.994Z,27.96
2019-06-26T16:28:27.382Z,29.16
2019-06-26T16:31:00.786Z,28.85
2019-06-26T16:33:34.424Z,29.50
2019-06-26T16:36:07.852Z,27.95
2019-06-26T16:38:41.256Z,28.38
2019-06-26T16:41:15.666Z,28.98
2019-06-26T16:43:49.063Z,30.07
2019-06-26T16:46:22.466Z,28.92
2019-06-26T16:48:55.875Z,28.23
2019-06-26T16:51:29.333Z,27.67
2019-06-26T16:54:02.684Z,26.74
2019-06-26T16:56:36.083Z,27.22
2019-06-26T16:59:09.476Z,28.37
2019-06-26T17:01:42.877Z,28.78
2019-06-26T17:04:16.279Z,29.98
2019-06-26T17:06:51.918Z,29.83
2019-06-26T17:09:25.308Z,30.27
2019-06-26T17:11:58.708Z,30.23
2019-06-26T17:14:32.121Z,30.57
2019-06-26T17:17:05.522Z,30.54
2019-06-26T17:19:40.550Z,30.85
2019-06-26T17:22:13.953Z,31.08
2019-06-26T17:24:49.357Z,31.13
2019-06-26T17:27:22.474Z,31.80
2019-06-26T17:29:57.773Z,32.41
2019-06-26T17:32:32.093Z,31.93
2019-06-26T17:35:09.743Z,31.88
2019-06-26T17:37:43.079Z,32.00
2019-06-26T17:40:16.873Z,31.34
2019-06-26T17:42:50.268Z,31.92
2019-06-26T17:45:23.669Z,31.77
2019-06-26T17:47:57.067Z,32.77
2019-06-26T17:50:30.486Z,31.99
2019-06-26T17:53:03.883Z,34.53
2019-06-26T17:55:37.291Z,33.21
2019-06-26T17:58:10.690Z,37.85
2019-06-26T18:00:44.091Z,39.30
2019-06-26T18:03:17.737Z,40.72
2019-06-26T18:05:51.139Z,42.40
2019-06-26T18:08:24.784Z,43.19
2019-06-26T18:10:58.427Z,44.13
2019-06-26T18:13:32.068Z,44.31
2019-06-26T18:16:05.549Z,44.91
2019-06-26T18:18:38.957Z,45.54
2019-06-26T18:21:12.352Z,46.36
2019-06-26T18:23:45.992Z,46.23
2019-06-26T18:26:19.405Z,46.86
2019-06-26T18:28:52.803Z,47.44
2019-06-26T18:31:26.444Z,47.81
2019-06-26T18:34:00.087Z,49.01
2019-06-26T18:36:34.732Z,49.34
2019-06-26T18:39:09.174Z,50.31
2019-06-26T18:41:42.546Z,51.19
2019-06-26T18:44:15.941Z,51.48
2019-06-26T18:46:49.346Z,52.08
2019-06-26T18:49:22.742Z,52.44
2019-06-26T18:51:56.136Z,52.61
2019-06-26T18:54:29.528Z,53.05
2019-06-26T18:57:02.939Z,53.48
2019-06-26T18:59:36.327Z,53.45
2019-06-26T19:02:09.739Z,53.60
2019-06-26T19:04:43.150Z,53.82
2019-06-26T19:07:16.545Z,53.95
2019-06-26T19:09:49.939Z,54.09
2019-06-26T19:12:24.294Z,54.24
2019-06-26T19:14:57.694Z,54.15
2019-06-26T19:17:31.100Z,54.07
2019-06-26T19:20:06.640Z,54.28
2019-06-26T19:22:40.052Z,54.43
2019-06-26T19:25:13.577Z,54.64
2019-06-26T19:27:46.979Z,54.54
2019-06-26T19:30:20.515Z,54.61
2019-06-26T19:32:53.934Z,54.50
2019-06-26T19:35:27.319Z,55.10
2019-06-26T19:38:00.735Z,55.10
2019-06-26T19:40:34.130Z,55.39
2019-06-26T19:43:10.885Z,55.44
2019-06-26T19:45:42.887Z,55.32
2019-06-26T19:48:16.292Z,55.32
2019-06-26T19:50:49.694Z,55.31
2019-06-26T19:53:23.095Z,55.19
2019-06-26T19:55:56.500Z,55.16
2019-06-26T19:58:30.059Z,55.29
2019-06-26T20:01:03.542Z,55.43
2019-06-26T20:03:36.952Z,55.79
2019-06-26T20:06:10.351Z,56.16
2019-06-26T20:08:53.335Z,56.71
2019-06-26T20:11:18.882Z,56.99
2019-06-26T20:13:52.285Z,57.28
2019-06-26T20:16:25.923Z,57.37
2019-06-26T20:18:59.354Z,57.23
2019-06-26T20:21:32.742Z,57.35
2019-06-26T20:24:06.151Z,57.33
2019-06-26T20:26:39.821Z,57.62
2019-06-26T20:29:13.209Z,58.24
2019-06-26T20:31:46.886Z,58.45
2019-06-26T20:34:20.281Z,58.84
2019-06-26T20:36:53.934Z,58.89
2019-06-26T20:39:27.352Z,58.96
2019-06-26T20:42:00.767Z,59.09
2019-06-26T20:44:34.246Z,59.14
2019-06-26T20:47:07.628Z,59.17
2019-06-26T20:49:52.530Z,59.01
2019-06-26T20:52:16.420Z,58.94
2019-06-26T20:55:00.720Z,59.02
2019-06-26T20:57:24.978Z,59.37
2019-06-26T20:59:58.390Z,59.56
2019-06-26T21:02:31.830Z,59.37
2019-06-26T21:05:07.543Z,59.10
2019-06-26T21:07:40.903Z,58.86
2019-06-26T21:10:14.371Z,58.94
2019-06-26T21:12:48.052Z,58.50
2019-06-26T21:15:21.467Z,58.28
2019-06-26T21:17:55.108Z,58.42
2019-06-26T21:20:28.525Z,58.42
2019-06-26T21:23:02.183Z,58.37
2019-06-26T21:25:35.594Z,58.28
2019-06-26T21:28:09.008Z,57.66
2019-06-26T21:30:42.670Z,57.41
2019-06-26T21:33:16.069Z,57.39
2019-06-26T21:35:49.710Z,57.70
2019-06-26T21:38:23.059Z,57.94
2019-06-26T21:40:56.444Z,58.09
2019-06-26T21:43:29.841Z,58.12
2019-06-26T21:46:03.236Z,58.29
2019-06-26T21:48:36.648Z,58.42
2019-06-26T21:51:10.029Z,58.22
2019-06-26T21:53:43.429Z,58.13
2019-06-26T21:56:17.069Z,58.13
2019-06-26T21:58:50.493Z,58.17
2019-06-26T22:01:24.106Z,58.23
2019-06-26T22:03:57.569Z,58.37
2019-06-26T22:06:31.151Z,58.23
2019-06-26T22:09:05.783Z,58.61
2019-06-26T22:11:39.208Z,58.87
2019-06-26T22:14:12.595Z,59.08
2019-06-26T22:16:45.998Z,59.03
2019-06-26T22:19:19.394Z,58.88
2019-06-26T22:21:52.811Z,58.56
2019-06-26T22:24:26.208Z,58.80
2019-06-26T22:26:59.615Z,58.93
2019-06-26T22:29:32.999Z,59.21
2019-06-26T22:32:06.729Z,59.41
2019-06-26T22:34:40.125Z,59.40
2019-06-26T22:37:13.523Z,58.99
2019-06-26T22:39:46.920Z,58.98
2019-06-26T22:42:20.506Z,59.28
2019-06-26T22:44:54.278Z,59.45
2019-06-26T22:47:27.683Z,59.53
2019-06-26T22:50:01.117Z,59.38
2019-06-26T22:52:34.529Z,59.42
2019-06-26T22:55:08.362Z,59.65
2019-06-26T22:57:41.795Z,60.05
2019-06-26T23:00:16.142Z,60.17
2019-06-26T23:02:49.551Z,60.41
2019-06-26T23:05:23.201Z,60.64
2019-06-26T23:07:56.605Z,60.61
2019-06-26T23:10:29.999Z,60.63
2019-06-26T23:13:03.411Z,60.74
2019-06-26T23:15:36.802Z,60.85
2019-06-26T23:18:10.214Z,60.94
2019-06-26T23:20:43.609Z,60.98
2019-06-26T23:23:17.016Z,61.01
2019-06-26T23:25:50.420Z,61.06
2019-06-26T23:28:23.826Z,61.31
2019-06-26T23:30:57.223Z,61.43
2019-06-26T23:33:30.639Z,61.71
2019-06-26T23:36:04.039Z,61.86
2019-06-26T23:38:37.433Z,61.88
2019-06-26T23:41:10.855Z,61.81
2019-06-26T23:43:44.260Z,61.88
2019-06-26T23:46:17.654Z,61.91
2019-06-26T23:48:51.063Z,62.14
2019-06-26T23:51:24.462Z,62.33
2019-06-26T23:53:58.118Z,62.45
2019-06-26T23:56:40.373Z,62.46
2019-06-26T23:59:06.901Z,62.39
